sensor_id;sensor_type;location;lat;lon;timestamp;P1;durP1;ratioP1;P2;durP2;ratioP2
49252;SDS011;35103;47.952;-1.502;2022-08-21T00:01:25;391.92;;;364.30;;
49252;SDS011;35103;47.952;-1.502;2022-08-21T00:03:52;452.50;;;419.42;;
49252;SDS011;35103;47.952;-1.502;2022-08-21T00:06:18;417.40;;;386.67;;
49252;SDS011;35103;47.952;-1.502;2022-08-21T00:08:44;426.50;;;395.77;;
49252;SDS011;35103;47.952;-1.502;2022-08-21T00:11:09;473.95;;;439.33;;
49252;SDS011;35103;47.952;-1.502;2022-08-21T00:13:35;516.05;;;478.88;;
49252;SDS011;35103;47.952;-1.502;2022-08-21T00:16:01;407.33;;;378.48;;
49252;SDS011;35103;47.952;-1.502;2022-08-21T00:18:28;407.27;;;378.13;;
49252;SDS011;35103;47.952;-1.502;2022-08-21T00:20:53;447.45;;;415.63;;
49252;SDS011;35103;47.952;-1.502;2022-08-21T00:23:19;348.83;;;324.75;;
49252;SDS011;35103;47.952;-1.502;2022-08-21T00:25:45;390.95;;;364.05;;
49252;SDS011;35103;47.952;-1.502;2022-08-21T00:28:11;450.60;;;417.58;;
49252;SDS011;35103;47.952;-1.502;2022-08-21T00:30:38;454.80;;;421.88;;
49252;SDS011;35103;47.952;-1.502;2022-08-21T00:33:04;507.80;;;470.30;;
49252;SDS011;35103;47.952;-1.502;2022-08-21T00:35:31;369.95;;;344.42;;
49252;SDS011;35103;47.952;-1.502;2022-08-21T00:38:00;369.85;;;343.40;;
49252;SDS011;35103;47.952;-1.502;2022-08-21T00:40:29;404.80;;;375.13;;
49252;SDS011;35103;47.952;-1.502;2022-08-21T00:43:01;357.92;;;334.10;;
49252;SDS011;35103;47.952;-1.502;2022-08-21T00:45:28;381.45;;;355.20;;
49252;SDS011;35103;47.952;-1.502;2022-08-21T00:47:54;378.30;;;352.33;;
49252;SDS011;35103;47.952;-1.502;2022-08-21T00:50:20;388.52;;;361.35;;
49252;SDS011;35103;47.952;-1.502;2022-08-21T00:52:47;456.88;;;423.63;;
49252;SDS011;35103;47.952;-1.502;2022-08-21T00:55:15;384.23;;;356.63;;
49252;SDS011;35103;47.952;-1.502;2022-08-21T00:57:42;393.58;;;366.15;;
49252;SDS011;35103;47.952;-1.502;2022-08-21T01:00:12;329.17;;;306.38;;
49252;SDS011;35103;47.952;-1.502;2022-08-21T01:02:46;450.88;;;419.23;;
49252;SDS011;35103;47.952;-1.502;2022-08-21T01:05:12;381.88;;;354.63;;
49252;SDS011;35103;47.952;-1.502;2022-08-21T01:07:39;536.95;;;496.38;;
49252;SDS011;35103;47.952;-1.502;2022-08-21T01:10:06;386.55;;;359.55;;
49252;SDS011;35103;47.952;-1.502;2022-08-21T01:12:33;370.42;;;344.95;;
49252;SDS011;35103;47.952;-1.502;2022-08-21T01:15:00;409.42;;;381.05;;
49252;SDS011;35103;47.952;-1.502;2022-08-21T01:17:27;405.98;;;377.33;;
49252;SDS011;35103;47.952;-1.502;2022-08-21T01:19:57;460.80;;;427.35;;
49252;SDS011;35103;47.952;-1.502;2022-08-21T01:22:23;364.77;;;338.88;;
49252;SDS011;35103;47.952;-1.502;2022-08-21T01:24:49;380.90;;;354.73;;
49252;SDS011;35103;47.952;-1.502;2022-08-21T01:27:14;388.60;;;362.63;;
49252;SDS011;35103;47.952;-1.502;2022-08-21T01:29:50;402.00;;;373.00;;
49252;SDS011;35103;47.952;-1.502;2022-08-21T01:32:19;437.27;;;405.17;;
49252;SDS011;35103;47.952;-1.502;2022-08-21T01:34:46;484.67;;;448.20;;
49252;SDS011;35103;47.952;-1.502;2022-08-21T01:37:13;424.30;;;393.65;;
49252;SDS011;35103;47.952;-1.502;2022-08-21T01:39:40;366.23;;;340.98;;
49252;SDS011;35103;47.952;-1.502;2022-08-21T01:42:06;568.90;;;526.05;;
49252;SDS011;35103;47.952;-1.502;2022-08-21T01:44:32;454.83;;;421.30;;
49252;SDS011;35103;47.952;-1.502;2022-08-21T01:46:59;537.00;;;495.20;;
49252;SDS011;35103;47.952;-1.502;2022-08-21T01:49:28;417.88;;;387.77;;
49252;SDS011;35103;47.952;-1.502;2022-08-21T01:51:54;440.23;;;408.52;;
49252;SDS011;35103;47.952;-1.502;2022-08-21T01:54:19;420.02;;;389.80;;
49252;SDS011;35103;47.952;-1.502;2022-08-21T01:56:46;401.60;;;373.58;;
49252;SDS011;35103;47.952;-1.502;2022-08-21T01:59:14;432.83;;;401.00;;
49252;SDS011;35103;47.952;-1.502;2022-08-21T02:01:41;450.23;;;418.10;;
49252;SDS011;35103;47.952;-1.502;2022-08-21T02:04:07;557.00;;;514.70;;
49252;SDS011;35103;47.952;-1.502;2022-08-21T02:06:34;356.63;;;331.33;;
49252;SDS011;35103;47.952;-1.502;2022-08-21T02:09:02;467.48;;;434.70;;
49252;SDS011;35103;47.952;-1.502;2022-08-21T02:11:28;364.73;;;339.30;;
49252;SDS011;35103;47.952;-1.502;2022-08-21T02:13:54;306.67;;;285.58;;
49252;SDS011;35103;47.952;-1.502;2022-08-21T02:16:19;425.20;;;394.85;;
49252;SDS011;35103;47.952;-1.502;2022-08-21T02:18:45;493.77;;;458.40;;
49252;SDS011;35103;47.952;-1.502;2022-08-21T02:21:11;455.80;;;423.50;;
49252;SDS011;35103;47.952;-1.502;2022-08-21T02:23:36;321.70;;;298.92;;
49252;SDS011;35103;47.952;-1.502;2022-08-21T02:26:03;404.00;;;376.02;;
49252;SDS011;35103;47.952;-1.502;2022-08-21T02:28:30;388.13;;;359.55;;
49252;SDS011;35103;47.952;-1.502;2022-08-21T02:30:56;323.05;;;302.08;;
49252;SDS011;35103;47.952;-1.502;2022-08-21T02:33:22;464.05;;;430.55;;
49252;SDS011;35103;47.952;-1.502;2022-08-21T02:35:49;300.10;;;279.65;;
49252;SDS011;35103;47.952;-1.502;2022-08-21T02:38:26;531.20;;;490.30;;
49252;SDS011;35103;47.952;-1.502;2022-08-21T02:40:55;483.77;;;448.60;;
49252;SDS011;35103;47.952;-1.502;2022-08-21T02:43:22;389.55;;;361.15;;
49252;SDS011;35103;47.952;-1.502;2022-08-21T02:45:50;302.25;;;281.45;;
49252;SDS011;35103;47.952;-1.502;2022-08-21T02:48:17;340.80;;;317.25;;
49252;SDS011;35103;47.952;-1.502;2022-08-21T02:50:47;345.23;;;320.73;;
49252;SDS011;35103;47.952;-1.502;2022-08-21T02:53:16;287.20;;;268.20;;
49252;SDS011;35103;47.952;-1.502;2022-08-21T02:55:46;402.70;;;373.35;;
49252;SDS011;35103;47.952;-1.502;2022-08-21T02:58:13;398.73;;;369.38;;
49252;SDS011;35103;47.952;-1.502;2022-08-21T03:00:41;506.15;;;467.13;;
49252;SDS011;35103;47.952;-1.502;2022-08-21T03:03:07;450.42;;;418.42;;
49252;SDS011;35103;47.952;-1.502;2022-08-21T03:05:33;492.42;;;455.15;;
49252;SDS011;35103;47.952;-1.502;2022-08-21T03:08:02;466.48;;;432.15;;
49252;SDS011;35103;47.952;-1.502;2022-08-21T03:10:29;437.55;;;405.33;;
49252;SDS011;35103;47.952;-1.502;2022-08-21T03:12:55;310.25;;;288.92;;
49252;SDS011;35103;47.952;-1.502;2022-08-21T03:15:21;531.70;;;492.55;;
49252;SDS011;35103;47.952;-1.502;2022-08-21T03:17:48;273.70;;;255.30;;
49252;SDS011;35103;47.952;-1.502;2022-08-21T03:20:16;533.97;;;494.98;;
49252;SDS011;35103;47.952;-1.502;2022-08-21T03:22:42;312.45;;;291.50;;
49252;SDS011;35103;47.952;-1.502;2022-08-21T03:25:08;443.08;;;411.77;;
49252;SDS011;35103;47.952;-1.502;2022-08-21T03:27:34;392.23;;;364.30;;
49252;SDS011;35103;47.952;-1.502;2022-08-21T03:30:00;321.08;;;298.38;;
49252;SDS011;35103;47.952;-1.502;2022-08-21T03:32:26;345.52;;;322.00;;
49252;SDS011;35103;47.952;-1.502;2022-08-21T03:34:52;331.80;;;307.90;;
49252;SDS011;35103;47.952;-1.502;2022-08-21T03:37:17;432.40;;;400.50;;
49252;SDS011;35103;47.952;-1.502;2022-08-21T03:39:43;384.55;;;357.15;;
49252;SDS011;35103;47.952;-1.502;2022-08-21T03:42:09;340.33;;;317.15;;
49252;SDS011;35103;47.952;-1.502;2022-08-21T03:44:35;374.90;;;347.33;;
49252;SDS011;35103;47.952;-1.502;2022-08-21T03:47:01;370.05;;;343.63;;
49252;SDS011;35103;47.952;-1.502;2022-08-21T03:49:26;331.85;;;307.75;;
49252;SDS011;35103;47.952;-1.502;2022-08-21T03:51:52;409.05;;;379.33;;
49252;SDS011;35103;47.952;-1.502;2022-08-21T03:54:18;360.98;;;335.75;;
49252;SDS011;35103;47.952;-1.502;2022-08-21T03:56:44;343.20;;;319.60;;
49252;SDS011;35103;47.952;-1.502;2022-08-21T03:59:10;320.52;;;298.00;;
49252;SDS011;35103;47.952;-1.502;2022-08-21T04:01:35;395.45;;;366.85;;
49252;SDS011;35103;47.952;-1.502;2022-08-21T04:04:02;254.35;;;237.77;;
49252;SDS011;35103;47.952;-1.502;2022-08-21T04:06:28;380.65;;;353.27;;
49252;SDS011;35103;47.952;-1.502;2022-08-21T04:08:54;305.42;;;284.83;;
49252;SDS011;35103;47.952;-1.502;2022-08-21T04:11:20;338.60;;;315.23;;
49252;SDS011;35103;47.952;-1.502;2022-08-21T04:13:46;357.13;;;331.77;;
49252;SDS011;35103;47.952;-1.502;2022-08-21T04:16:12;473.38;;;438.05;;
49252;SDS011;35103;47.952;-1.502;2022-08-21T04:18:38;382.45;;;354.23;;
49252;SDS011;35103;47.952;-1.502;2022-08-21T04:21:04;513.20;;;472.90;;
49252;SDS011;35103;47.952;-1.502;2022-08-21T04:23:31;335.92;;;311.52;;
49252;SDS011;35103;47.952;-1.502;2022-08-21T04:25:57;348.10;;;322.98;;
49252;SDS011;35103;47.952;-1.502;2022-08-21T04:28:23;432.45;;;400.08;;
49252;SDS011;35103;47.952;-1.502;2022-08-21T04:30:51;404.75;;;374.73;;
49252;SDS011;35103;47.952;-1.502;2022-08-21T04:33:18;296.45;;;276.55;;
49252;SDS011;35103;47.952;-1.502;2022-08-21T04:35:45;420.02;;;389.35;;
49252;SDS011;35103;47.952;-1.502;2022-08-21T04:38:10;416.13;;;385.50;;
49252;SDS011;35103;47.952;-1.502;2022-08-21T04:40:36;333.45;;;309.75;;
49252;SDS011;35103;47.952;-1.502;2022-08-21T04:43:03;346.38;;;322.20;;
49252;SDS011;35103;47.952;-1.502;2022-08-21T04:45:32;438.30;;;406.50;;
49252;SDS011;35103;47.952;-1.502;2022-08-21T04:48:03;353.85;;;328.88;;
49252;SDS011;35103;47.952;-1.502;2022-08-21T04:50:38;393.92;;;365.02;;
49252;SDS011;35103;47.952;-1.502;2022-08-21T04:53:26;297.98;;;277.50;;
49252;SDS011;35103;47.952;-1.502;2022-08-21T04:55:57;347.10;;;322.48;;
49252;SDS011;35103;47.952;-1.502;2022-08-21T04:58:29;365.67;;;339.70;;
49252;SDS011;35103;47.952;-1.502;2022-08-21T05:00:55;465.30;;;431.95;;
49252;SDS011;35103;47.952;-1.502;2022-08-21T05:03:22;524.50;;;484.52;;
49252;SDS011;35103;47.952;-1.502;2022-08-21T05:05:48;455.55;;;421.63;;
49252;SDS011;35103;47.952;-1.502;2022-08-21T05:08:16;547.83;;;506.42;;
49252;SDS011;35103;47.952;-1.502;2022-08-21T05:10:44;387.48;;;359.60;;
49252;SDS011;35103;47.952;-1.502;2022-08-21T05:13:10;493.92;;;456.30;;
49252;SDS011;35103;47.952;-1.502;2022-08-21T05:15:37;351.30;;;327.05;;
49252;SDS011;35103;47.952;-1.502;2022-08-21T05:18:03;301.42;;;280.05;;
49252;SDS011;35103;47.952;-1.502;2022-08-21T05:20:28;296.98;;;277.08;;
49252;SDS011;35103;47.952;-1.502;2022-08-21T05:22:54;395.10;;;366.80;;
49252;SDS011;35103;47.952;-1.502;2022-08-21T05:25:20;377.23;;;350.20;;
49252;SDS011;35103;47.952;-1.502;2022-08-21T05:27:45;303.50;;;281.75;;
49252;SDS011;35103;47.952;-1.502;2022-08-21T05:30:12;370.83;;;343.88;;
49252;SDS011;35103;47.952;-1.502;2022-08-21T05:32:38;317.40;;;294.35;;
49252;SDS011;35103;47.952;-1.502;2022-08-21T05:35:04;304.88;;;283.73;;
49252;SDS011;35103;47.952;-1.502;2022-08-21T05:37:31;282.60;;;262.73;;
49252;SDS011;35103;47.952;-1.502;2022-08-21T05:39:56;410.88;;;380.65;;
49252;SDS011;35103;47.952;-1.502;2022-08-21T05:42:23;433.42;;;401.75;;
49252;SDS011;35103;47.952;-1.502;2022-08-21T05:44:49;312.65;;;291.27;;
49252;SDS011;35103;47.952;-1.502;2022-08-21T05:47:14;357.55;;;330.63;;
49252;SDS011;35103;47.952;-1.502;2022-08-21T05:49:40;339.60;;;315.92;;
49252;SDS011;35103;47.952;-1.502;2022-08-21T05:52:05;377.13;;;349.67;;
49252;SDS011;35103;47.952;-1.502;2022-08-21T05:54:31;343.25;;;318.80;;
49252;SDS011;35103;47.952;-1.502;2022-08-21T05:56:56;341.02;;;316.40;;
49252;SDS011;35103;47.952;-1.502;2022-08-21T05:59:22;281.83;;;261.52;;
49252;SDS011;35103;47.952;-1.502;2022-08-21T06:01:48;350.52;;;323.95;;
49252;SDS011;35103;47.952;-1.502;2022-08-21T06:04:14;408.85;;;378.50;;
49252;SDS011;35103;47.952;-1.502;2022-08-21T06:06:39;449.10;;;414.98;;
49252;SDS011;35103;47.952;-1.502;2022-08-21T06:09:05;342.60;;;317.30;;
49252;SDS011;35103;47.952;-1.502;2022-08-21T06:11:31;387.02;;;358.38;;
49252;SDS011;35103;47.952;-1.502;2022-08-21T06:13:57;428.23;;;396.60;;
49252;SDS011;35103;47.952;-1.502;2022-08-21T06:16:23;316.30;;;294.13;;
49252;SDS011;35103;47.952;-1.502;2022-08-21T06:18:49;577.88;;;532.35;;
49252;SDS011;35103;47.952;-1.502;2022-08-21T06:21:15;409.55;;;378.75;;
49252;SDS011;35103;47.952;-1.502;2022-08-21T06:23:41;426.20;;;394.00;;
49252;SDS011;35103;47.952;-1.502;2022-08-21T06:26:07;316.25;;;293.92;;
49252;SDS011;35103;47.952;-1.502;2022-08-21T06:28:35;373.85;;;346.02;;
49252;SDS011;35103;47.952;-1.502;2022-08-21T06:31:01;519.83;;;479.42;;
49252;SDS011;35103;47.952;-1.502;2022-08-21T06:33:37;331.45;;;306.83;;
49252;SDS011;35103;47.952;-1.502;2022-08-21T06:36:02;360.25;;;334.30;;
49252;SDS011;35103;47.952;-1.502;2022-08-21T06:38:28;269.05;;;249.63;;
49252;SDS011;35103;47.952;-1.502;2022-08-21T06:40:54;481.63;;;445.38;;
49252;SDS011;35103;47.952;-1.502;2022-08-21T06:43:19;377.40;;;350.25;;
49252;SDS011;35103;47.952;-1.502;2022-08-21T06:45:45;461.00;;;425.77;;
49252;SDS011;35103;47.952;-1.502;2022-08-21T06:48:10;288.55;;;268.98;;
49252;SDS011;35103;47.952;-1.502;2022-08-21T06:50:36;370.42;;;343.98;;
49252;SDS011;35103;47.952;-1.502;2022-08-21T06:53:05;427.73;;;394.60;;
49252;SDS011;35103;47.952;-1.502;2022-08-21T06:55:32;354.67;;;329.10;;
49252;SDS011;35103;47.952;-1.502;2022-08-21T06:57:58;430.42;;;397.80;;
49252;SDS011;35103;47.952;-1.502;2022-08-21T07:00:24;480.42;;;444.02;;
49252;SDS011;35103;47.952;-1.502;2022-08-21T07:02:50;736.25;;;675.58;;
49252;SDS011;35103;47.952;-1.502;2022-08-21T07:05:16;478.58;;;441.05;;
49252;SDS011;35103;47.952;-1.502;2022-08-21T07:07:42;569.60;;;525.33;;
49252;SDS011;35103;47.952;-1.502;2022-08-21T07:10:08;501.58;;;462.10;;
49252;SDS011;35103;47.952;-1.502;2022-08-21T07:12:34;466.75;;;430.00;;
49252;SDS011;35103;47.952;-1.502;2022-08-21T07:14:59;305.73;;;283.60;;
49252;SDS011;35103;47.952;-1.502;2022-08-21T07:17:25;425.77;;;393.35;;
49252;SDS011;35103;47.952;-1.502;2022-08-21T07:19:50;374.08;;;346.95;;
49252;SDS011;35103;47.952;-1.502;2022-08-21T07:22:16;519.03;;;478.50;;
49252;SDS011;35103;47.952;-1.502;2022-08-21T07:24:45;507.10;;;466.80;;
49252;SDS011;35103;47.952;-1.502;2022-08-21T07:27:10;479.20;;;443.60;;
49252;SDS011;35103;47.952;-1.502;2022-08-21T07:29:36;452.52;;;417.17;;
49252;SDS011;35103;47.952;-1.502;2022-08-21T07:32:02;601.33;;;556.53;;
49252;SDS011;35103;47.952;-1.502;2022-08-21T07:34:28;396.23;;;366.23;;
49252;SDS011;35103;47.952;-1.502;2022-08-21T07:36:54;361.60;;;334.70;;
49252;SDS011;35103;47.952;-1.502;2022-08-21T07:39:19;488.83;;;451.05;;
49252;SDS011;35103;47.952;-1.502;2022-08-21T07:41:45;448.73;;;413.73;;
49252;SDS011;35103;47.952;-1.502;2022-08-21T07:44:10;573.13;;;528.55;;
49252;SDS011;35103;47.952;-1.502;2022-08-21T07:46:36;434.80;;;400.52;;
49252;SDS011;35103;47.952;-1.502;2022-08-21T07:49:02;495.25;;;455.85;;
49252;SDS011;35103;47.952;-1.502;2022-08-21T07:51:28;442.23;;;407.00;;
49252;SDS011;35103;47.952;-1.502;2022-08-21T07:53:55;394.15;;;363.52;;
49252;SDS011;35103;47.952;-1.502;2022-08-21T07:56:21;546.17;;;502.75;;
49252;SDS011;35103;47.952;-1.502;2022-08-21T07:58:47;505.85;;;465.65;;
49252;SDS011;35103;47.952;-1.502;2022-08-21T08:01:13;384.85;;;356.30;;
49252;SDS011;35103;47.952;-1.502;2022-08-21T08:03:40;509.70;;;469.35;;
49252;SDS011;35103;47.952;-1.502;2022-08-21T08:06:06;469.48;;;433.67;;
49252;SDS011;35103;47.952;-1.502;2022-08-21T08:08:32;477.40;;;439.35;;
49252;SDS011;35103;47.952;-1.502;2022-08-21T08:10:58;564.20;;;517.75;;
49252;SDS011;35103;47.952;-1.502;2022-08-21T08:13:24;474.73;;;437.08;;
49252;SDS011;35103;47.952;-1.502;2022-08-21T08:15:50;571.92;;;525.92;;
49252;SDS011;35103;47.952;-1.502;2022-08-21T08:18:16;594.13;;;545.45;;
49252;SDS011;35103;47.952;-1.502;2022-08-21T08:20:41;555.47;;;512.13;;
49252;SDS011;35103;47.952;-1.502;2022-08-21T08:23:11;449.95;;;414.38;;
49252;SDS011;35103;47.952;-1.502;2022-08-21T08:25:37;625.85;;;573.70;;
49252;SDS011;35103;47.952;-1.502;2022-08-21T08:28:03;660.80;;;604.90;;
49252;SDS011;35103;47.952;-1.502;2022-08-21T08:30:30;609.80;;;560.60;;
49252;SDS011;35103;47.952;-1.502;2022-08-21T08:32:55;673.40;;;617.97;;
49252;SDS011;35103;47.952;-1.502;2022-08-21T08:35:21;515.67;;;476.15;;
49252;SDS011;35103;47.952;-1.502;2022-08-21T08:37:46;536.60;;;493.75;;
49252;SDS011;35103;47.952;-1.502;2022-08-21T08:40:13;543.13;;;499.35;;
49252;SDS011;35103;47.952;-1.502;2022-08-21T08:42:45;508.40;;;468.08;;
49252;SDS011;35103;47.952;-1.502;2022-08-21T08:45:12;531.03;;;487.85;;
49252;SDS011;35103;47.952;-1.502;2022-08-21T08:47:48;475.80;;;438.73;;
49252;SDS011;35103;47.952;-1.502;2022-08-21T08:50:21;612.47;;;564.10;;
49252;SDS011;35103;47.952;-1.502;2022-08-21T08:53:04;662.25;;;608.30;;
49252;SDS011;35103;47.952;-1.502;2022-08-21T08:55:39;600.65;;;552.38;;
49252;SDS011;35103;47.952;-1.502;2022-08-21T08:58:07;618.67;;;568.28;;
49252;SDS011;35103;47.952;-1.502;2022-08-21T09:00:39;531.28;;;488.60;;
49252;SDS011;35103;47.952;-1.502;2022-08-21T09:03:05;509.98;;;469.25;;
49252;SDS011;35103;47.952;-1.502;2022-08-21T09:06:06;715.40;;;655.58;;
49252;SDS011;35103;47.952;-1.502;2022-08-21T09:11:29;563.80;;;518.85;;
49252;SDS011;35103;47.952;-1.502;2022-08-21T09:14:04;617.97;;;568.47;;
49252;SDS011;35103;47.952;-1.502;2022-08-21T09:23:10;611.53;;;562.40;;
49252;SDS011;35103;47.952;-1.502;2022-08-21T09:25:34;601.60;;;554.35;;
49252;SDS011;35103;47.952;-1.502;2022-08-21T09:28:08;609.35;;;560.63;;
49252;SDS011;35103;47.952;-1.502;2022-08-21T09:30:34;656.17;;;605.40;;
49252;SDS011;35103;47.952;-1.502;2022-08-21T09:33:00;596.63;;;550.30;;
49252;SDS011;35103;47.952;-1.502;2022-08-21T09:35:25;684.22;;;629.53;;
49252;SDS011;35103;47.952;-1.502;2022-08-21T09:37:53;623.45;;;573.75;;
49252;SDS011;35103;47.952;-1.502;2022-08-21T09:40:29;617.88;;;570.95;;
49252;SDS011;35103;47.952;-1.502;2022-08-21T09:43:05;601.53;;;553.67;;
49252;SDS011;35103;47.952;-1.502;2022-08-21T09:45:37;687.78;;;633.72;;
49252;SDS011;35103;47.952;-1.502;2022-08-21T09:48:20;620.80;;;571.65;;
49252;SDS011;35103;47.952;-1.502;2022-08-21T09:50:49;579.28;;;534.80;;
49252;SDS011;35103;47.952;-1.502;2022-08-21T09:53:26;644.38;;;593.55;;
49252;SDS011;35103;47.952;-1.502;2022-08-21T09:58:29;641.22;;;592.53;;
49252;SDS011;35103;47.952;-1.502;2022-08-21T10:01:00;629.75;;;582.17;;
49252;SDS011;35103;47.952;-1.502;2022-08-21T10:03:28;670.22;;;618.60;;
49252;SDS011;35103;47.952;-1.502;2022-08-21T10:05:58;607.55;;;561.33;;
49252;SDS011;35103;47.952;-1.502;2022-08-21T10:08:30;646.17;;;598.03;;
49252;SDS011;35103;47.952;-1.502;2022-08-21T10:11:01;711.60;;;655.78;;
49252;SDS011;35103;47.952;-1.502;2022-08-21T10:19:12;708.38;;;656.22;;
49252;SDS011;35103;47.952;-1.502;2022-08-21T10:21:36;688.83;;;635.75;;
49252;SDS011;35103;47.952;-1.502;2022-08-21T10:35:44;650.53;;;600.20;;
49252;SDS011;35103;47.952;-1.502;2022-08-21T10:46:50;659.17;;;607.75;;
49252;SDS011;35103;47.952;-1.502;2022-08-21T10:49:36;717.47;;;657.83;;
49252;SDS011;35103;47.952;-1.502;2022-08-21T10:52:36;717.50;;;662.53;;
49252;SDS011;35103;47.952;-1.502;2022-08-21T10:55:25;693.90;;;633.50;;
49252;SDS011;35103;47.952;-1.502;2022-08-21T10:57:57;706.40;;;652.08;;
49252;SDS011;35103;47.952;-1.502;2022-08-21T11:00:36;708.15;;;650.17;;
49252;SDS011;35103;47.952;-1.502;2022-08-21T11:03:13;710.08;;;654.10;;
49252;SDS011;35103;47.952;-1.502;2022-08-21T11:06:08;707.65;;;652.88;;
49252;SDS011;35103;47.952;-1.502;2022-08-21T11:08:57;711.33;;;654.25;;
49252;SDS011;35103;47.952;-1.502;2022-08-21T11:11:46;696.03;;;638.75;;
49252;SDS011;35103;47.952;-1.502;2022-08-21T11:17:11;690.70;;;637.97;;
49252;SDS011;35103;47.952;-1.502;2022-08-21T11:27:47;706.75;;;654.10;;
49252;SDS011;35103;47.952;-1.502;2022-08-21T11:35:45;684.63;;;630.33;;
49252;SDS011;35103;47.952;-1.502;2022-08-21T11:38:35;665.20;;;613.50;;
49252;SDS011;35103;47.952;-1.502;2022-08-21T11:46:47;598.33;;;552.58;;
49252;SDS011;35103;47.952;-1.502;2022-08-21T11:50:04;668.65;;;614.50;;
49252;SDS011;35103;47.952;-1.502;2022-08-21T11:52:26;652.22;;;599.65;;
49252;SDS011;35103;47.952;-1.502;2022-08-21T11:55:16;655.42;;;600.47;;
49252;SDS011;35103;47.952;-1.502;2022-08-21T12:00:25;643.08;;;590.10;;
49252;SDS011;35103;47.952;-1.502;2022-08-21T12:03:08;611.70;;;563.60;;
49252;SDS011;35103;47.952;-1.502;2022-08-21T12:05:53;652.63;;;602.67;;
49252;SDS011;35103;47.952;-1.502;2022-08-21T12:08:27;591.45;;;544.53;;
49252;SDS011;35103;47.952;-1.502;2022-08-21T12:13:34;722.30;;;665.65;;
49252;SDS011;35103;47.952;-1.502;2022-08-21T12:16:09;594.05;;;548.47;;
49252;SDS011;35103;47.952;-1.502;2022-08-21T12:18:36;614.42;;;566.42;;
49252;SDS011;35103;47.952;-1.502;2022-08-21T12:21:17;591.58;;;545.83;;
49252;SDS011;35103;47.952;-1.502;2022-08-21T12:24:01;667.90;;;616.05;;
49252;SDS011;35103;47.952;-1.502;2022-08-21T12:32:02;657.47;;;606.03;;
49252;SDS011;35103;47.952;-1.502;2022-08-21T12:34:53;633.15;;;585.85;;
49252;SDS011;35103;47.952;-1.502;2022-08-21T12:37:40;660.38;;;610.25;;
49252;SDS011;35103;47.952;-1.502;2022-08-21T12:40:22;650.17;;;599.10;;
49252;SDS011;35103;47.952;-1.502;2022-08-21T12:42:56;647.15;;;598.70;;
49252;SDS011;35103;47.952;-1.502;2022-08-21T12:45:37;692.88;;;639.92;;
49252;SDS011;35103;47.952;-1.502;2022-08-21T12:48:09;649.75;;;599.95;;
49252;SDS011;35103;47.952;-1.502;2022-08-21T12:50:53;661.67;;;611.13;;
49252;SDS011;35103;47.952;-1.502;2022-08-21T12:56:01;705.63;;;652.80;;
49252;SDS011;35103;47.952;-1.502;2022-08-21T12:58:28;661.25;;;610.40;;
49252;SDS011;35103;47.952;-1.502;2022-08-21T13:03:55;749.22;;;690.20;;
49252;SDS011;35103;47.952;-1.502;2022-08-21T13:06:26;645.20;;;595.60;;
49252;SDS011;35103;47.952;-1.502;2022-08-21T13:08:57;722.45;;;665.83;;
49252;SDS011;35103;47.952;-1.502;2022-08-21T13:11:29;681.92;;;628.63;;
49252;SDS011;35103;47.952;-1.502;2022-08-21T13:13:56;685.63;;;632.47;;
49252;SDS011;35103;47.952;-1.502;2022-08-21T13:16:24;736.75;;;678.40;;
49252;SDS011;35103;47.952;-1.502;2022-08-21T13:18:57;670.42;;;619.83;;
49252;SDS011;35103;47.952;-1.502;2022-08-21T13:21:32;609.10;;;562.58;;
49252;SDS011;35103;47.952;-1.502;2022-08-21T13:24:11;663.13;;;611.35;;
49252;SDS011;35103;47.952;-1.502;2022-08-21T13:26:40;688.35;;;632.08;;
49252;SDS011;35103;47.952;-1.502;2022-08-21T13:29:10;677.08;;;624.00;;
49252;SDS011;35103;47.952;-1.502;2022-08-21T13:31:38;622.33;;;575.17;;
49252;SDS011;35103;47.952;-1.502;2022-08-21T13:34:05;661.97;;;610.10;;
49252;SDS011;35103;47.952;-1.502;2022-08-21T13:36:32;689.60;;;634.30;;
49252;SDS011;35103;47.952;-1.502;2022-08-21T13:39:02;644.00;;;592.80;;
49252;SDS011;35103;47.952;-1.502;2022-08-21T13:41:30;608.17;;;561.95;;
49252;SDS011;35103;47.952;-1.502;2022-08-21T13:46:31;687.00;;;633.67;;
49252;SDS011;35103;47.952;-1.502;2022-08-21T13:48:59;690.45;;;636.17;;
49252;SDS011;35103;47.952;-1.502;2022-08-21T13:51:27;662.85;;;613.67;;
49252;SDS011;35103;47.952;-1.502;2022-08-21T13:53:53;594.22;;;548.80;;
49252;SDS011;35103;47.952;-1.502;2022-08-21T13:56:24;698.63;;;644.28;;
49252;SDS011;35103;47.952;-1.502;2022-08-21T13:58:56;657.67;;;607.13;;
49252;SDS011;35103;47.952;-1.502;2022-08-21T14:03:59;626.80;;;579.90;;
49252;SDS011;35103;47.952;-1.502;2022-08-21T14:06:28;620.83;;;572.63;;
49252;SDS011;35103;47.952;-1.502;2022-08-21T14:09:00;692.83;;;638.17;;
49252;SDS011;35103;47.952;-1.502;2022-08-21T14:11:37;593.67;;;547.63;;
49252;SDS011;35103;47.952;-1.502;2022-08-21T14:14:18;683.63;;;628.03;;
49252;SDS011;35103;47.952;-1.502;2022-08-21T14:16:53;663.77;;;613.97;;
49252;SDS011;35103;47.952;-1.502;2022-08-21T14:19:26;646.88;;;597.53;;
49252;SDS011;35103;47.952;-1.502;2022-08-21T14:24:26;619.95;;;573.85;;
49252;SDS011;35103;47.952;-1.502;2022-08-21T14:26:55;629.72;;;583.15;;
49252;SDS011;35103;47.952;-1.502;2022-08-21T14:29:32;598.30;;;551.75;;
49252;SDS011;35103;47.952;-1.502;2022-08-21T14:32:00;577.58;;;534.38;;
49252;SDS011;35103;47.952;-1.502;2022-08-21T14:34:53;732.65;;;675.42;;
49252;SDS011;35103;47.952;-1.502;2022-08-21T14:37:19;669.00;;;617.67;;
49252;SDS011;35103;47.952;-1.502;2022-08-21T14:39:44;659.22;;;607.90;;
49252;SDS011;35103;47.952;-1.502;2022-08-21T14:42:10;620.05;;;572.65;;
49252;SDS011;35103;47.952;-1.502;2022-08-21T14:44:36;774.17;;;709.72;;
49252;SDS011;35103;47.952;-1.502;2022-08-21T14:47:02;663.03;;;612.85;;
49252;SDS011;35103;47.952;-1.502;2022-08-21T14:49:27;660.72;;;609.33;;
49252;SDS011;35103;47.952;-1.502;2022-08-21T14:51:54;605.75;;;559.35;;
49252;SDS011;35103;47.952;-1.502;2022-08-21T14:54:23;613.63;;;567.08;;
49252;SDS011;35103;47.952;-1.502;2022-08-21T14:56:50;663.25;;;611.83;;
49252;SDS011;35103;47.952;-1.502;2022-08-21T14:59:16;669.70;;;618.45;;
49252;SDS011;35103;47.952;-1.502;2022-08-21T15:01:41;591.25;;;545.55;;
49252;SDS011;35103;47.952;-1.502;2022-08-21T15:04:07;636.80;;;585.90;;
49252;SDS011;35103;47.952;-1.502;2022-08-21T15:06:32;711.15;;;653.88;;
49252;SDS011;35103;47.952;-1.502;2022-08-21T15:08:58;661.08;;;611.53;;
49252;SDS011;35103;47.952;-1.502;2022-08-21T15:11:24;679.90;;;627.10;;
49252;SDS011;35103;47.952;-1.502;2022-08-21T15:13:53;658.47;;;608.42;;
49252;SDS011;35103;47.952;-1.502;2022-08-21T15:16:21;640.45;;;590.65;;
49252;SDS011;35103;47.952;-1.502;2022-08-21T15:18:47;616.15;;;567.83;;